sensor_id;sensor_type;location;lat;lon;timestamp;pressure;altitude;pressure_sealevel;temperature;humidity
18527;BME280;9393;42.158;24.748;2023-02-18T00:02:23;100282.41;;;10.96;41.46
18527;BME280;9393;42.158;24.748;2023-02-18T00:05:29;100283.34;;;11.15;41.12
18527;BME280;9393;42.158;24.748;2023-02-18T00:08:33;100287.94;;;11.02;41.07
18527;BME280;9393;42.158;24.748;2023-02-18T00:11:37;100270.72;;;11.21;40.88
18527;BME280;9393;42.158;24.748;2023-02-18T00:14:41;100269.09;;;11.20;40.79
18527;BME280;9393;42.158;24.748;2023-02-18T00:17:45;100270.63;;;11.01;41.27
18527;BME280;9393;42.158;24.748;2023-02-18T00:20:50;100261.00;;;10.81;41.57
18527;BME280;9393;42.158;24.748;2023-02-18T00:23:54;100261.59;;;10.74;41.56
18527;BME280;9393;42.158;24.748;2023-02-18T00:26:58;100253.41;;;10.78;41.88
18527;BME280;9393;42.158;24.748;2023-02-18T00:30:03;100268.31;;;10.87;41.57
18527;BME280;9393;42.158;24.748;2023-02-18T00:33:08;100255.22;;;10.98;41.29
18527;BME280;9393;42.158;24.748;2023-02-18T00:36:15;100258.25;;;11.03;41.14
18527;BME280;9393;42.158;24.748;2023-02-18T00:39:19;100248.59;;;10.94;41.10
18527;BME280;9393;42.158;24.748;2023-02-18T00:42:23;100253.03;;;11.24;40.88
18527;BME280;9393;42.158;24.748;2023-02-18T00:45:27;100240.53;;;11.28;40.65
18527;BME280;9393;42.158;24.748;2023-02-18T00:48:31;100233.47;;;11.39;40.36
18527;BME280;9393;42.158;24.748;2023-02-18T00:51:38;100226.69;;;11.27;40.65
18527;BME280;9393;42.158;24.748;2023-02-18T00:54:41;100217.41;;;11.13;40.57
18527;BME280;9393;42.158;24.748;2023-02-18T00:57:45;100210.56;;;11.22;40.69
18527;BME280;9393;42.158;24.748;2023-02-18T01:00:49;100209.16;;;11.18;40.65
18527;BME280;9393;42.158;24.748;2023-02-18T01:03:53;100193.94;;;11.23;40.50
18527;BME280;9393;42.158;24.748;2023-02-18T01:06:59;100195.94;;;11.10;40.83
18527;BME280;9393;42.158;24.748;2023-02-18T01:10:03;100190.94;;;11.28;40.38
18527;BME280;9393;42.158;24.748;2023-02-18T01:13:07;100194.78;;;11.24;40.39
18527;BME280;9393;42.158;24.748;2023-02-18T01:16:13;100183.09;;;11.28;40.50
18527;BME280;9393;42.158;24.748;2023-02-18T01:19:16;100183.19;;;11.17;40.81
18527;BME280;9393;42.158;24.748;2023-02-18T01:22:22;100179.78;;;10.75;41.67
18527;BME280;9393;42.158;24.748;2023-02-18T01:25:25;100179.56;;;11.08;40.97
18527;BME280;9393;42.158;24.748;2023-02-18T01:28:29;100187.16;;;10.90;41.41
18527;BME280;9393;42.158;24.748;2023-02-18T01:31:33;100189.13;;;10.77;41.77
18527;BME280;9393;42.158;24.748;2023-02-18T01:34:37;100171.19;;;10.63;41.79
18527;BME280;9393;42.158;24.748;2023-02-18T01:37:42;100172.31;;;10.91;41.13
18527;BME280;9393;42.158;24.748;2023-02-18T01:40:48;100165.22;;;10.93;41.19
18527;BME280;9393;42.158;24.748;2023-02-18T01:44:15;100156.25;;;10.86;41.18
18527;BME280;9393;42.158;24.748;2023-02-18T01:47:20;100158.19;;;10.93;40.97
18527;BME280;9393;42.158;24.748;2023-02-18T01:50:26;100156.28;;;10.95;41.04
18527;BME280;9393;42.158;24.748;2023-02-18T01:53:36;100156.47;;;10.62;41.30
18527;BME280;9393;42.158;24.748;2023-02-18T01:56:43;100164.97;;;10.75;41.15
18527;BME280;9393;42.158;24.748;2023-02-18T01:59:51;100152.88;;;10.74;40.67
18527;BME280;9393;42.158;24.748;2023-02-18T02:02:56;100151.91;;;10.54;40.96
18527;BME280;9393;42.158;24.748;2023-02-18T02:06:00;100143.78;;;10.69;40.78
18527;BME280;9393;42.158;24.748;2023-02-18T02:09:08;100145.28;;;10.92;40.47
18527;BME280;9393;42.158;24.748;2023-02-18T02:12:34;100147.84;;;10.82;40.74
18527;BME280;9393;42.158;24.748;2023-02-18T02:15:44;100166.59;;;10.76;40.72
18527;BME280;9393;42.158;24.748;2023-02-18T02:18:59;100161.47;;;10.65;41.04
18527;BME280;9393;42.158;24.748;2023-02-18T02:33:47;100159.50;;;10.26;41.74
18527;BME280;9393;42.158;24.748;2023-02-18T02:37:00;100150.41;;;10.20;42.09
18527;BME280;9393;42.158;24.748;2023-02-18T02:40:19;100162.63;;;10.20;41.83
18527;BME280;9393;42.158;24.748;2023-02-18T02:43:35;100168.53;;;10.22;41.86
18527;BME280;9393;42.158;24.748;2023-02-18T02:46:44;100160.50;;;10.02;42.15
18527;BME280;9393;42.158;24.748;2023-02-18T02:49:52;100170.69;;;10.17;42.22
18527;BME280;9393;42.158;24.748;2023-02-18T02:53:04;100172.91;;;10.21;41.96
18527;BME280;9393;42.158;24.748;2023-02-18T02:56:14;100177.91;;;10.02;42.06
18527;BME280;9393;42.158;24.748;2023-02-18T02:59:21;100175.06;;;10.05;42.07
18527;BME280;9393;42.158;24.748;2023-02-18T03:02:33;100165.22;;;10.08;41.90
18527;BME280;9393;42.158;24.748;2023-02-18T03:05:51;100173.16;;;10.07;42.29
18527;BME280;9393;42.158;24.748;2023-02-18T03:09:08;100161.38;;;9.81;42.30
18527;BME280;9393;42.158;24.748;2023-02-18T03:12:18;100161.94;;;9.95;42.04
18527;BME280;9393;42.158;24.748;2023-02-18T03:15:35;100157.16;;;10.11;41.61
18527;BME280;9393;42.158;24.748;2023-02-18T03:18:44;100157.41;;;10.08;42.06
18527;BME280;9393;42.158;24.748;2023-02-18T03:21:51;100148.13;;;9.84;42.37
18527;BME280;9393;42.158;24.748;2023-02-18T03:24:59;100140.31;;;9.84;42.41
18527;BME280;9393;42.158;24.748;2023-02-18T03:28:05;100136.41;;;9.89;42.67
18527;BME280;9393;42.158;24.748;2023-02-18T03:31:13;100143.25;;;9.79;42.62
18527;BME280;9393;42.158;24.748;2023-02-18T03:34:24;100137.91;;;9.92;42.45
18527;BME280;9393;42.158;24.748;2023-02-18T03:37:30;100133.25;;;9.52;43.49
18527;BME280;9393;42.158;24.748;2023-02-18T03:40:35;100132.13;;;9.88;42.32
18527;BME280;9393;42.158;24.748;2023-02-18T03:43:39;100144.81;;;9.93;42.45
18527;BME280;9393;42.158;24.748;2023-02-18T03:46:45;100148.25;;;9.82;42.44
18527;BME280;9393;42.158;24.748;2023-02-18T03:49:48;100152.31;;;10.07;42.00
18527;BME280;9393;42.158;24.748;2023-02-18T03:52:52;100156.94;;;10.14;41.78
18527;BME280;9393;42.158;24.748;2023-02-18T03:55:57;100164.97;;;10.23;41.57
18527;BME280;9393;42.158;24.748;2023-02-18T03:59:01;100164.78;;;10.35;41.56
18527;BME280;9393;42.158;24.748;2023-02-18T04:02:05;100171.50;;;10.49;41.35
18527;BME280;9393;42.158;24.748;2023-02-18T04:05:09;100173.50;;;10.25;41.53
18527;BME280;9393;42.158;24.748;2023-02-18T04:08:13;100172.03;;;10.32;41.81
18527;BME280;9393;42.158;24.748;2023-02-18T04:11:18;100178.69;;;10.25;41.75
18527;BME280;9393;42.158;24.748;2023-02-18T04:14:22;100180.25;;;10.27;42.12
18527;BME280;9393;42.158;24.748;2023-02-18T04:17:26;100183.22;;;10.11;42.08
18527;BME280;9393;42.158;24.748;2023-02-18T04:20:29;100178.50;;;10.05;42.40
18527;BME280;9393;42.158;24.748;2023-02-18T04:23:33;100190.28;;;10.32;41.86
18527;BME280;9393;42.158;24.748;2023-02-18T04:26:39;100184.38;;;10.30;42.04
18527;BME280;9393;42.158;24.748;2023-02-18T04:29:43;100184.53;;;10.17;42.08
18527;BME280;9393;42.158;24.748;2023-02-18T04:32:46;100182.50;;;10.21;41.74
18527;BME280;9393;42.158;24.748;2023-02-18T04:35:50;100192.50;;;9.93;42.21
18527;BME280;9393;42.158;24.748;2023-02-18T04:38:54;100191.13;;;9.67;42.94
18527;BME280;9393;42.158;24.748;2023-02-18T04:41:59;100196.47;;;9.54;42.58
18527;BME280;9393;42.158;24.748;2023-02-18T04:45:03;100191.38;;;9.53;43.12
18527;BME280;9393;42.158;24.748;2023-02-18T04:48:06;100188.63;;;9.65;42.70
18527;BME280;9393;42.158;24.748;2023-02-18T04:51:11;100187.69;;;9.78;42.44
18527;BME280;9393;42.158;24.748;2023-02-18T04:54:14;100175.16;;;9.38;43.05
18527;BME280;9393;42.158;24.748;2023-02-18T04:57:19;100178.59;;;9.72;42.71
18527;BME280;9393;42.158;24.748;2023-02-18T05:00:23;100187.41;;;9.92;41.98
18527;BME280;9393;42.158;24.748;2023-02-18T05:03:30;100189.75;;;10.17;41.88
18527;BME280;9393;42.158;24.748;2023-02-18T05:06:33;100194.66;;;10.31;41.42
18527;BME280;9393;42.158;24.748;2023-02-18T05:09:39;100194.22;;;10.26;41.44
18527;BME280;9393;42.158;24.748;2023-02-18T05:12:44;100188.16;;;10.37;41.39
18527;BME280;9393;42.158;24.748;2023-02-18T05:15:48;100191.69;;;10.36;41.31
18527;BME280;9393;42.158;24.748;2023-02-18T05:18:51;100194.38;;;10.13;41.59
18527;BME280;9393;42.158;24.748;2023-02-18T05:21:55;100191.59;;;10.37;41.14
18527;BME280;9393;42.158;24.748;2023-02-18T05:24:59;100190.03;;;10.35;41.35
18527;BME280;9393;42.158;24.748;2023-02-18T05:28:04;100187.91;;;10.40;41.10
18527;BME280;9393;42.158;24.748;2023-02-18T05:31:08;100177.84;;;10.35;41.23
18527;BME280;9393;42.158;24.748;2023-02-18T05:34:11;100179.59;;;10.35;40.82
18527;BME280;9393;42.158;24.748;2023-02-18T05:37:15;100176.53;;;10.41;41.25
18527;BME280;9393;42.158;24.748;2023-02-18T05:40:19;100179.16;;;10.30;41.46
18527;BME280;9393;42.158;24.748;2023-02-18T05:43:25;100176.13;;;10.45;41.15
18527;BME280;9393;42.158;24.748;2023-02-18T05:46:28;100181.22;;;10.47;40.80
18527;BME280;9393;42.158;24.748;2023-02-18T05:49:33;100181.09;;;10.69;40.16
18527;BME280;9393;42.158;24.748;2023-02-18T05:52:37;100185.84;;;10.75;40.14
18527;BME280;9393;42.158;24.748;2023-02-18T05:55:41;100179.72;;;10.65;40.25
18527;BME280;9393;42.158;24.748;2023-02-18T05:58:46;100173.94;;;10.82;39.90
18527;BME280;9393;42.158;24.748;2023-02-18T06:01:50;100192.69;;;10.97;39.58
18527;BME280;9393;42.158;24.748;2023-02-18T06:04:54;100186.16;;;11.02;39.30
18527;BME280;9393;42.158;24.748;2023-02-18T06:07:58;100189.75;;;11.11;38.87
18527;BME280;9393;42.158;24.748;2023-02-18T06:11:02;100191.03;;;11.17;38.36
18527;BME280;9393;42.158;24.748;2023-02-18T06:14:07;100188.84;;;11.22;38.30
18527;BME280;9393;42.158;24.748;2023-02-18T06:17:12;100193.47;;;11.39;38.03
18527;BME280;9393;42.158;24.748;2023-02-18T06:20:16;100178.81;;;11.57;37.75
18527;BME280;9393;42.158;24.748;2023-02-18T06:23:20;100182.41;;;11.65;37.34
18527;BME280;9393;42.158;24.748;2023-02-18T06:26:24;100183.19;;;11.77;37.13
18527;BME280;9393;42.158;24.748;2023-02-18T06:29:29;100179.75;;;11.86;36.84
18527;BME280;9393;42.158;24.748;2023-02-18T06:32:33;100193.00;;;11.94;36.70
18527;BME280;9393;42.158;24.748;2023-02-18T06:35:37;100192.03;;;12.05;36.59
18527;BME280;9393;42.158;24.748;2023-02-18T06:38:43;100188.06;;;12.10;36.38
18527;BME280;9393;42.158;24.748;2023-02-18T06:41:47;100178.44;;;12.21;36.25
18527;BME280;9393;42.158;24.748;2023-02-18T06:44:52;100174.19;;;12.39;35.90
18527;BME280;9393;42.158;24.748;2023-02-18T06:47:56;100169.34;;;12.63;35.30
18527;BME280;9393;42.158;24.748;2023-02-18T06:51:00;100155.53;;;12.90;35.08
18527;BME280;9393;42.158;24.748;2023-02-18T06:54:05;100150.53;;;12.96;35.27
18527;BME280;9393;42.158;24.748;2023-02-18T06:57:09;100145.13;;;13.17;35.36
18527;BME280;9393;42.158;24.748;2023-02-18T07:00:15;100136.25;;;13.28;35.23
18527;BME280;9393;42.158;24.748;2023-02-18T07:03:19;100139.00;;;13.36;34.86
18527;BME280;9393;42.158;24.748;2023-02-18T07:06:23;100138.13;;;13.45;35.09
18527;BME280;9393;42.158;24.748;2023-02-18T07:09:27;100156.50;;;13.62;34.88
18527;BME280;9393;42.158;24.748;2023-02-18T07:12:31;100161.38;;;13.85;34.57
18527;BME280;9393;42.158;24.748;2023-02-18T07:15:37;100154.72;;;14.08;34.03
18527;BME280;9393;42.158;24.748;2023-02-18T07:18:40;100136.22;;;14.09;33.66
18527;BME280;9393;42.158;24.748;2023-02-18T07:21:44;100144.00;;;14.19;33.86
18527;BME280;9393;42.158;24.748;2023-02-18T07:24:50;100142.66;;;14.33;33.56
18527;BME280;9393;42.158;24.748;2023-02-18T07:27:54;100151.41;;;14.59;33.27
18527;BME280;9393;42.158;24.748;2023-02-18T07:30:59;100151.19;;;14.70;33.22
18527;BME280;9393;42.158;24.748;2023-02-18T07:34:03;100128.78;;;14.84;33.04
18527;BME280;9393;42.158;24.748;2023-02-18T07:37:07;100122.50;;;14.51;33.24
18527;BME280;9393;42.158;24.748;2023-02-18T07:40:13;100118.47;;;14.82;32.91
18527;BME280;9393;42.158;24.748;2023-02-18T07:43:18;100112.97;;;14.76;33.06
18527;BME280;9393;42.158;24.748;2023-02-18T07:46:23;100124.69;;;14.81;32.79
18527;BME280;9393;42.158;24.748;2023-02-18T07:49:27;100116.28;;;14.78;33.17
18527;BME280;9393;42.158;24.748;2023-02-18T07:52:31;100110.63;;;14.64;33.07
18527;BME280;9393;42.158;24.748;2023-02-18T07:55:35;100114.00;;;14.57;33.54
18527;BME280;9393;42.158;24.748;2023-02-18T07:58:51;100103.94;;;14.70;33.30
18527;BME280;9393;42.158;24.748;2023-02-18T08:01:57;100109.84;;;15.32;32.62
18527;BME280;9393;42.158;24.748;2023-02-18T08:05:01;100103.31;;;15.86;32.17
18527;BME280;9393;42.158;24.748;2023-02-18T08:08:05;100107.75;;;16.17;31.84
18527;BME280;9393;42.158;24.748;2023-02-18T08:11:09;100097.72;;;16.53;31.42
18527;BME280;9393;42.158;24.748;2023-02-18T08:14:20;100106.53;;;17.01;31.09
18527;BME280;9393;42.158;24.748;2023-02-18T08:17:27;100108.53;;;16.99;31.15
18527;BME280;9393;42.158;24.748;2023-02-18T08:20:31;100094.81;;;17.11;31.07
18527;BME280;9393;42.158;24.748;2023-02-18T08:23:38;100100.22;;;17.26;31.02
18527;BME280;9393;42.158;24.748;2023-02-18T08:26:42;100101.41;;;17.15;30.89
18527;BME280;9393;42.158;24.748;2023-02-18T08:30:01;100097.88;;;16.76;31.19
18527;BME280;9393;42.158;24.748;2023-02-18T08:33:07;100102.50;;;16.42;31.84
18527;BME280;9393;42.158;24.748;2023-02-18T08:36:11;100097.91;;;16.60;32.00
18527;BME280;9393;42.158;24.748;2023-02-18T08:39:14;100102.97;;;17.33;30.92
18527;BME280;9393;42.158;24.748;2023-02-18T08:42:18;100099.88;;;17.68;30.86
18527;BME280;9393;42.158;24.748;2023-02-18T08:45:22;100094.13;;;17.64;30.63
18527;BME280;9393;42.158;24.748;2023-02-18T08:48:28;100091.09;;;18.21;30.30
18527;BME280;9393;42.158;24.748;2023-02-18T08:51:33;100092.63;;;18.15;29.51
18527;BME280;9393;42.158;24.748;2023-02-18T08:54:37;100094.38;;;18.00;29.31
18527;BME280;9393;42.158;24.748;2023-02-18T08:57:41;100090.91;;;17.77;30.02
18527;BME280;9393;42.158;24.748;2023-02-18T09:00:45;100083.56;;;17.64;30.49
18527;BME280;9393;42.158;24.748;2023-02-18T09:03:50;100078.66;;;18.30;29.94
18527;BME280;9393;42.158;24.748;2023-02-18T09:06:54;100074.88;;;18.47;29.38
18527;BME280;9393;42.158;24.748;2023-02-18T09:09:58;100084.00;;;18.59;28.97
18527;BME280;9393;42.158;24.748;2023-02-18T09:13:02;100088.19;;;18.53;28.89
18527;BME280;9393;42.158;24.748;2023-02-18T09:16:09;100086.53;;;18.15;29.06
18527;BME280;9393;42.158;24.748;2023-02-18T09:19:15;100085.41;;;18.09;28.91
18527;BME280;9393;42.158;24.748;2023-02-18T09:22:18;100087.50;;;18.14;28.82
18527;BME280;9393;42.158;24.748;2023-02-18T09:25:23;100076.97;;;18.51;28.31
18527;BME280;9393;42.158;24.748;2023-02-18T09:28:26;100082.13;;;18.97;27.97
18527;BME280;9393;42.158;24.748;2023-02-18T09:31:30;100087.31;;;18.76;28.35
18527;BME280;9393;42.158;24.748;2023-02-18T09:34:36;100087.53;;;18.51;28.70
18527;BME280;9393;42.158;24.748;2023-02-18T09:37:40;100084.03;;;18.13;29.27
18527;BME280;9393;42.158;24.748;2023-02-18T09:40:45;100085.91;;;18.28;29.41
18527;BME280;9393;42.158;24.748;2023-02-18T09:43:52;100087.75;;;18.04;29.60
18527;BME280;9393;42.158;24.748;2023-02-18T09:46:59;100087.53;;;18.51;29.06
18527;BME280;9393;42.158;24.748;2023-02-18T09:50:16;100091.22;;;18.80;29.11
18527;BME280;9393;42.158;24.748;2023-02-18T09:53:23;100088.25;;;19.12;28.78
18527;BME280;9393;42.158;24.748;2023-02-18T09:56:29;100078.19;;;19.22;28.86
18527;BME280;9393;42.158;24.748;2023-02-18T09:59:34;100065.69;;;19.81;28.35
18527;BME280;9393;42.158;24.748;2023-02-18T10:02:38;100061.78;;;20.20;27.22
18527;BME280;9393;42.158;24.748;2023-02-18T10:05:52;100050.78;;;20.44;27.72
18527;BME280;9393;42.158;24.748;2023-02-18T10:09:01;100041.59;;;20.40;27.30
18527;BME280;9393;42.158;24.748;2023-02-18T10:12:12;100045.09;;;20.47;26.57
18527;BME280;9393;42.158;24.748;2023-02-18T10:15:21;100036.84;;;20.14;27.11
18527;BME280;9393;42.158;24.748;2023-02-18T10:18:28;100024.19;;;20.31;27.16
18527;BME280;9393;42.158;24.748;2023-02-18T10:21:34;100024.28;;;19.95;27.18
18527;BME280;9393;42.158;24.748;2023-02-18T10:24:41;100020.09;;;20.07;27.10
18527;BME280;9393;42.158;24.748;2023-02-18T10:27:47;100017.00;;;20.03;26.75
18527;BME280;9393;42.158;24.748;2023-02-18T10:30:57;100010.81;;;20.17;25.81
18527;BME280;9393;42.158;24.748;2023-02-18T10:34:10;99996.81;;;20.24;25.41
18527;BME280;9393;42.158;24.748;2023-02-18T10:37:44;99990.69;;;20.23;25.60
18527;BME280;9393;42.158;24.748;2023-02-18T10:40:57;99982.63;;;20.65;25.28
18527;BME280;9393;42.158;24.748;2023-02-18T10:44:08;99984.44;;;20.99;25.14
18527;BME280;9393;42.158;24.748;2023-02-18T10:47:21;99966.38;;;20.75;24.84
18527;BME280;9393;42.158;24.748;2023-02-18T10:50:34;99964.78;;;20.46;25.47
18527;BME280;9393;42.158;24.748;2023-02-18T10:53:43;99968.50;;;20.58;25.48
18527;BME280;9393;42.158;24.748;2023-02-18T10:56:49;99965.00;;;20.86;25.21
18527;BME280;9393;42.158;24.748;2023-02-18T10:59:56;99961.00;;;21.09;25.27
18527;BME280;9393;42.158;24.748;2023-02-18T11:03:08;99953.59;;;21.65;24.43
18527;BME280;9393;42.158;24.748;2023-02-18T11:06:18;99965.25;;;21.64;24.59
18527;BME280;9393;42.158;24.748;2023-02-18T11:09:38;99949.47;;;21.30;24.93
18527;BME280;9393;42.158;24.748;2023-02-18T11:12:47;99944.00;;;21.58;25.13
18527;BME280;9393;42.158;24.748;2023-02-18T11:15:58;99935.53;;;21.15;25.14
18527;BME280;9393;42.158;24.748;2023-02-18T11:19:02;99941.28;;;21.19;25.23
18527;BME280;9393;42.158;24.748;2023-02-18T11:22:12;99932.06;;;20.60;25.93
18527;BME280;9393;42.158;24.748;2023-02-18T11:25:23;99928.63;;;20.66;25.75
18527;BME280;9393;42.158;24.748;2023-02-18T11:28:46;99927.69;;;20.87;25.34
18527;BME280;9393;42.158;24.748;2023-02-18T11:31:55;99926.84;;;21.47;25.05
18527;BME280;9393;42.158;24.748;2023-02-18T11:35:00;99919.28;;;21.64;24.85
18527;BME280;9393;42.158;24.748;2023-02-18T11:38:17;99928.69;;;21.80;24.55
18527;BME280;9393;42.158;24.748;2023-02-18T11:41:32;99918.25;;;21.52;24.94
18527;BME280;9393;42.158;24.748;2023-02-18T11:44:39;99919.44;;;21.17;25.06
18527;BME280;9393;42.158;24.748;2023-02-18T11:47:57;99919.81;;;21.13;25.22
18527;BME280;9393;42.158;24.748;2023-02-18T11:51:02;99922.22;;;20.95;25.49
18527;BME280;9393;42.158;24.748;2023-02-18T11:54:25;99916.38;;;21.13;25.44
18527;BME280;9393;42.158;24.748;2023-02-18T11:57:34;99912.09;;;21.25;25.03
18527;BME280;9393;42.158;24.748;2023-02-18T12:00:42;99902.50;;;21.17;25.08
18527;BME280;9393;42.158;24.748;2023-02-18T12:03:51;99902.50;;;21.31;25.07
18527;BME280;9393;42.158;24.748;2023-02-18T12:07:05;99899.06;;;21.30;25.57
18527;BME280;9393;42.158;24.748;2023-02-18T12:10:21;99898.06;;;21.71;25.35
18527;BME280;9393;42.158;24.748;2023-02-18T12:13:32;99889.06;;;21.78;25.44
18527;BME280;9393;42.158;24.748;2023-02-18T12:16:44;99882.91;;;22.10;25.35
18527;BME280;9393;42.158;24.748;2023-02-18T12:20:02;99868.41;;;22.20;25.22
18527;BME280;9393;42.158;24.748;2023-02-18T12:23:16;99863.34;;;21.98;25.57
18527;BME280;9393;42.158;24.748;2023-02-18T12:26:28;99870.78;;;22.34;25.25
18527;BME280;9393;42.158;24.748;2023-02-18T12:29:54;99864.69;;;22.21;25.35
18527;BME280;9393;42.158;24.748;2023-02-18T12:33:05;99856.78;;;21.88;25.62
18527;BME280;9393;42.158;24.748;2023-02-18T12:36:18;99863.97;;;21.67;26.25
18527;BME280;9393;42.158;24.748;2023-02-18T12:39:38;99863.31;;;21.72;26.15
18527;BME280;9393;42.158;24.748;2023-02-18T12:42:54;99853.91;;;21.83;26.24
18527;BME280;9393;42.158;24.748;2023-02-18T12:46:38;99853.13;;;21.69;26.41
18527;BME280;9393;42.158;24.748;2023-02-18T12:50:10;99845.59;;;21.92;26.15
18527;BME280;9393;42.158;24.748;2023-02-18T12:53:32;99846.22;;;21.68;26.49
18527;BME280;9393;42.158;24.748;2023-02-18T12:56:56;99841.28;;;21.58;26.91
18527;BME280;9393;42.158;24.748;2023-02-18T13:04:18;99826.41;;;21.51;27.14
18527;BME280;9393;42.158;24.748;2023-02-18T13:07:35;99833.75;;;21.75;27.08
18527;BME280;9393;42.158;24.748;2023-02-18T13:10:51;99819.66;;;21.68;27.06
18527;BME280;9393;42.158;24.748;2023-02-18T13:14:02;99813.31;;;21.95;27.22
18527;BME280;9393;42.158;24.748;2023-02-18T13:17:10;99814.06;;;21.89;27.16
18527;BME280;9393;42.158;24.748;2023-02-18T13:20:20;99819.03;;;21.59;27.41
18527;BME280;9393;42.158;24.748;2023-02-18T13:23:30;99802.28;;;21.65;27.51
18527;BME280;9393;42.158;24.748;2023-02-18T13:26:35;99809.25;;;21.53;27.48
18527;BME280;9393;42.158;24.748;2023-02-18T13:29:44;99811.47;;;21.70;27.56
18527;BME280;9393;42.158;24.748;2023-02-18T13:32:57;99809.03;;;21.75;27.58
18527;BME280;9393;42.158;24.748;2023-02-18T13:36:08;99815.34;;;21.80;27.56
18527;BME280;9393;42.158;24.748;2023-02-18T13:39:16;99818.00;;;21.93;27.45
18527;BME280;9393;42.158;24.748;2023-02-18T13:42:25;99822.06;;;22.02;27.46
18527;BME280;9393;42.158;24.748;2023-02-18T13:45:31;99820.75;;;22.25;27.26
18527;BME280;9393;42.158;24.748;2023-02-18T13:48:41;99818.53;;;22.22;27.43
18527;BME280;9393;42.158;24.748;2023-02-18T13:51:49;99825.13;;;22.06;27.37
18527;BME280;9393;42.158;24.748;2023-02-18T13:54:54;99821.03;;;21.97;27.26
18527;BME280;9393;42.158;24.748;2023-02-18T13:57:58;99817.97;;;21.87;27.17
18527;BME280;9393;42.158;24.748;2023-02-18T14:01:05;99809.88;;;21.49;27.68
18527;BME280;9393;42.158;24.748;2023-02-18T14:04:35;99808.22;;;21.67;27.38
18527;BME280;9393;42.158;24.748;2023-02-18T14:07:49;99808.66;;;21.58;27.71
18527;BME280;9393;42.158;24.748;2023-02-18T14:11:29;99810.88;;;21.41;27.46
18527;BME280;9393;42.158;24.748;2023-02-18T14:14:37;99818.25;;;21.33;27.68
18527;BME280;9393;42.158;24.748;2023-02-18T14:17:42;99814.16;;;21.10;27.99
18527;BME280;9393;42.158;24.748;2023-02-18T14:20:47;99813.28;;;21.03;27.94
18527;BME280;9393;42.158;24.748;2023-02-18T14:24:02;99814.50;;;20.88;27.93
18527;BME280;9393;42.158;24.748;2023-02-18T14:27:14;99815.31;;;20.88;27.95
18527;BME280;9393;42.158;24.748;2023-02-18T14:30:25;99809.63;;;20.85;28.23
18527;BME280;9393;42.158;24.748;2023-02-18T14:33:34;99809.59;;;20.78;28.50
18527;BME280;9393;42.158;24.748;2023-02-18T14:36:44;99813.06;;;20.79;28.55
18527;BME280;9393;42.158;24.748;2023-02-18T14:39:59;99809.16;;;20.61;28.91
18527;BME280;9393;42.158;24.748;2023-02-18T14:43:15;99798.91;;;20.52;29.35
18527;BME280;9393;42.158;24.748;2023-02-18T14:46:31;99795.84;;;20.55;29.56
18527;BME280;9393;42.158;24.748;2023-02-18T14:49:40;99805.00;;;20.46;29.61
18527;BME280;9393;42.158;24.748;2023-02-18T14:52:48;99793.97;;;20.36;29.96
18527;BME280;9393;42.158;24.748;2023-02-18T14:55:57;99795.63;;;20.37;29.85
18527;BME280;9393;42.158;24.748;2023-02-18T14:59:03;99790.25;;;20.24;30.26
18527;BME280;9393;42.158;24.748;2023-02-18T15:02:21;99788.59;;;20.16;30.33
18527;BME280;9393;42.158;24.748;2023-02-18T15:05:30;99788.56;;;20.09;30.08
18527;BME280;9393;42.158;24.748;2023-02-18T15:08:38;99795.81;;;19.94;30.46
18527;BME280;9393;42.158;24.748;2023-02-18T15:11:46;99797.84;;;19.92;30.55
18527;BME280;9393;42.158;24.748;2023-02-18T15:14:53;99789.22;;;19.84;30.43
18527;BME280;9393;42.158;24.748;2023-02-18T15:17:58;99791.66;;;19.79;30.68
18527;BME280;9393;42.158;24.748;2023-02-18T15:21:04;99783.03;;;19.70;30.50
18527;BME280;9393;42.158;24.748;2023-02-18T15:24:19;99791.19;;;19.69;30.63
18527;BME280;9393;42.158;24.748;2023-02-18T15:27:27;99785.69;;;19.42;31.20
18527;BME280;9393;42.158;24.748;2023-02-18T15:30:32;99796.19;;;19.36;31.20
18527;BME280;9393;42.158;24.748;2023-02-18T15:33:41;99796.75;;;19.31;31.29
18527;BME280;9393;42.158;24.748;2023-02-18T15:36:48;99796.94;;;19.23;31.53
18527;BME280;9393;42.158;24.748;2023-02-18T15:39:53;99794.97;;;19.10;31.92
18527;BME280;9393;42.158;24.748;2023-02-18T15:42:59;99798.63;;;19.09;31.81
18527;BME280;9393;42.158;24.748;2023-02-18T15:46:11;99790.78;;;18.95;31.66
18527;BME280;9393;42.158;24.748;2023-02-18T15:49:19;99808.78;;;18.85;31.78
18527;BME280;9393;42.158;24.748;2023-02-18T15:52:26;99804.25;;;18.79;31.99
18527;BME280;9393;42.158;24.748;2023-02-18T15:55:33;99803.53;;;18.70;32.06
18527;BME280;9393;42.158;24.748;2023-02-18T15:58:39;99798.72;;;18.59;32.16
18527;BME280;9393;42.158;24.748;2023-02-18T16:01:48;99799.47;;;18.53;32.27
18527;BME280;9393;42.158;24.748;2023-02-18T16:04:55;99796.56;;;18.48;32.24
18527;BME280;9393;42.158;24.748;2023-02-18T16:08:04;99793.03;;;18.41;32.26
18527;BME280;9393;42.158;24.748;2023-02-18T16:11:11;99795.56;;;18.34;32.21
18527;BME280;9393;42.158;24.748;2023-02-18T16:14:29;99789.84;;;18.31;32.14
18527;BME280;9393;42.158;24.748;2023-02-18T16:17:34;99789.50;;;18.34;32.28
18527;BME280;9393;42.158;24.748;2023-02-18T16:20:38;99783.31;;;18.27;32.47
18527;BME280;9393;42.158;24.748;2023-02-18T16:23:45;99797.81;;;18.16;32.66
18527;BME280;9393;42.158;24.748;2023-02-18T16:26:56;99800.81;;;17.98;33.01
18527;BME280;9393;42.158;24.748;2023-02-18T16:30:13;99811.38;;;17.98;33.02
18527;BME280;9393;42.158;24.748;2023-02-18T16:33:18;99813.19;;;17.83;33.43
18527;BME280;9393;42.158;24.748;2023-02-18T16:36:22;99829.75;;;17.77;33.47
18527;BME280;9393;42.158;24.748;2023-02-18T16:39:28;99823.28;;;17.65;33.72
18527;BME280;9393;42.158;24.748;2023-02-18T16:42:33;99827.63;;;17.58;33.54
18527;BME280;9393;42.158;24.748;2023-02-18T16:45:41;99836.22;;;17.52;33.65